createdAt,value
2023-01-20T00:02:08.939Z,23.34
2023-01-20T00:07:16.141Z,23.38
2023-01-20T00:12:23.350Z,23.44
2023-01-20T00:17:30.566Z,23.45
2023-01-20T00:22:37.762Z,23.46
2023-01-20T00:27:44.958Z,23.54
2023-01-20T00:32:52.376Z,23.58
2023-01-20T00:37:59.622Z,23.60
2023-01-20T00:43:06.785Z,23.57
2023-01-20T00:48:13.997Z,23.51
2023-01-20T00:53:21.228Z,23.61
2023-01-20T00:58:28.456Z,23.50
2023-01-20T01:03:35.647Z,23.36
2023-01-20T01:08:42.937Z,23.21
2023-01-20T01:13:50.100Z,23.01
2023-01-20T01:18:57.324Z,22.85
2023-01-20T01:24:04.533Z,22.66
2023-01-20T01:29:11.734Z,22.48
2023-01-20T01:34:18.952Z,22.31
2023-01-20T01:39:26.166Z,22.14
2023-01-20T01:44:33.350Z,21.95
2023-01-20T01:49:40.552Z,21.75
2023-01-20T01:54:47.756Z,21.60
2023-01-20T01:59:54.963Z,21.46
2023-01-20T02:05:02.163Z,21.36
2023-01-20T02:10:09.376Z,21.23
2023-01-20T02:15:16.873Z,21.14
2023-01-20T02:20:23.861Z,20.99
2023-01-20T02:25:31.090Z,20.87
2023-01-20T02:30:38.279Z,20.79
2023-01-20T02:35:45.403Z,20.89
2023-01-20T02:40:52.612Z,20.94
2023-01-20T02:45:59.941Z,21.01
2023-01-20T02:51:06.975Z,21.06
2023-01-20T02:56:14.202Z,21.05
2023-01-20T03:01:21.438Z,21.03
2023-01-20T03:06:28.554Z,20.94
2023-01-20T03:11:36.319Z,20.85
2023-01-20T03:16:43.140Z,20.75
2023-01-20T03:21:50.233Z,20.66
2023-01-20T03:26:57.474Z,20.58
2023-01-20T03:32:04.626Z,20.46
2023-01-20T03:37:11.830Z,20.35
2023-01-20T03:42:19.121Z,20.29
2023-01-20T03:47:26.237Z,20.16
2023-01-20T03:52:47.126Z,20.13
2023-01-20T03:57:40.675Z,20.15
2023-01-20T04:02:47.867Z,20.22
2023-01-20T04:07:55.057Z,20.28
2023-01-20T04:13:05.490Z,20.35
2023-01-20T04:18:10.112Z,20.39
2023-01-20T04:23:17.355Z,20.41
2023-01-20T04:28:24.650Z,20.39
2023-01-20T04:33:31.856Z,20.32
2023-01-20T04:38:39.068Z,20.22
2023-01-20T04:43:46.235Z,20.18
2023-01-20T04:48:53.427Z,20.06
2023-01-20T04:54:00.613Z,19.96
2023-01-20T04:59:07.840Z,19.83
2023-01-20T05:04:15.014Z,19.75
2023-01-20T05:09:22.310Z,19.69
2023-01-20T05:14:29.556Z,19.76
2023-01-20T05:19:36.987Z,19.87
2023-01-20T05:24:44.358Z,19.96
2023-01-20T05:29:51.587Z,20.06
2023-01-20T05:34:58.734Z,20.10
2023-01-20T05:40:05.973Z,20.14
2023-01-20T05:45:13.539Z,20.13
2023-01-20T05:50:20.401Z,20.10
2023-01-20T05:55:27.652Z,20.01
2023-01-20T06:00:34.803Z,19.91
2023-01-20T06:05:41.995Z,19.83
2023-01-20T06:10:50.568Z,19.72
2023-01-20T06:15:56.454Z,19.60
2023-01-20T06:21:03.501Z,19.51
2023-01-20T06:26:10.698Z,19.45
2023-01-20T06:31:18.096Z,19.45
2023-01-20T06:36:25.118Z,19.46
2023-01-20T06:41:32.327Z,19.60
2023-01-20T06:46:39.560Z,19.67
2023-01-20T06:51:46.728Z,19.77
2023-01-20T06:56:53.933Z,19.84
2023-01-20T07:02:01.312Z,19.89
2023-01-20T07:07:08.503Z,19.89
2023-01-20T07:12:15.651Z,19.85
2023-01-20T07:17:22.905Z,19.79
2023-01-20T07:22:30.080Z,19.74
2023-01-20T07:27:37.287Z,19.62
2023-01-20T07:32:44.522Z,19.53
2023-01-20T07:37:51.689Z,19.45
2023-01-20T07:42:58.946Z,19.37
2023-01-20T07:48:06.232Z,19.30
2023-01-20T07:53:13.403Z,19.32
2023-01-20T07:58:20.611Z,19.45
2023-01-20T08:03:27.873Z,19.55
2023-01-20T08:08:35.335Z,19.68
2023-01-20T08:13:42.528Z,19.72
2023-01-20T08:18:49.807Z,19.76
2023-01-20T08:23:56.929Z,19.79
2023-01-20T08:29:04.162Z,19.76
2023-01-20T08:34:11.359Z,19.71
2023-01-20T08:39:18.522Z,19.66
2023-01-20T08:44:25.735Z,19.54
2023-01-20T08:49:33.045Z,19.42
2023-01-20T08:54:40.183Z,19.28
2023-01-20T08:59:47.387Z,19.18
2023-01-20T09:04:54.607Z,19.15
2023-01-20T09:10:01.820Z,19.29
2023-01-20T09:15:09.036Z,19.36
2023-01-20T09:20:16.319Z,19.48
2023-01-20T09:25:23.511Z,19.57
2023-01-20T09:30:30.701Z,19.62
2023-01-20T09:35:38.017Z,19.68
2023-01-20T09:40:45.194Z,19.67
2023-01-20T09:45:52.452Z,19.60
2023-01-20T09:50:59.686Z,19.54
2023-01-20T09:56:08.500Z,19.52
2023-01-20T10:01:14.125Z,19.45
2023-01-20T10:06:21.265Z,19.35
2023-01-20T10:11:28.456Z,19.28
2023-01-20T10:16:35.656Z,19.18
2023-01-20T10:21:42.910Z,19.21
2023-01-20T10:26:50.055Z,19.27
2023-01-20T10:31:57.224Z,19.38
2023-01-20T10:37:04.522Z,19.51
2023-01-20T10:42:11.670Z,19.59
2023-01-20T10:47:18.919Z,19.62
2023-01-20T10:52:26.213Z,19.65
2023-01-20T10:57:33.458Z,19.61
2023-01-20T11:02:40.727Z,19.56
2023-01-20T11:07:47.927Z,19.51
2023-01-20T11:12:55.108Z,19.45
2023-01-20T11:18:02.319Z,19.37
2023-01-20T11:23:09.602Z,19.30
2023-01-20T11:28:16.758Z,19.24
2023-01-20T11:33:24.158Z,19.18
2023-01-20T11:38:31.259Z,19.15
2023-01-20T11:43:38.389Z,19.29
2023-01-20T11:48:45.548Z,19.39
2023-01-20T11:53:52.776Z,19.53
2023-01-20T11:59:00.000Z,19.62
2023-01-20T12:04:07.338Z,19.61
2023-01-20T12:09:14.493Z,19.62
2023-01-20T12:14:21.685Z,19.61
2023-01-20T12:19:28.846Z,19.55
2023-01-20T12:24:42.912Z,19.50
2023-01-20T12:29:43.199Z,19.40
2023-01-20T12:34:50.383Z,19.30
2023-01-20T12:39:57.600Z,19.21
2023-01-20T12:45:04.757Z,19.09
2023-01-20T12:50:12.124Z,19.12
2023-01-20T12:55:19.450Z,19.23
2023-01-20T13:00:26.630Z,19.36
2023-01-20T13:05:33.857Z,19.42
2023-01-20T13:10:41.075Z,19.54
2023-01-20T13:15:48.221Z,19.56
2023-01-20T13:20:55.429Z,19.58
2023-01-20T13:26:02.665Z,19.56
2023-01-20T13:31:09.937Z,19.56
2023-01-20T13:36:17.075Z,19.52
2023-01-20T13:41:24.254Z,19.47
2023-01-20T13:46:31.413Z,19.45
2023-01-20T13:51:38.644Z,19.35
2023-01-20T13:56:45.896Z,19.25
2023-01-20T14:01:53.041Z,19.16
2023-01-20T14:07:00.727Z,19.20
2023-01-20T14:12:07.954Z,19.29
2023-01-20T14:17:15.170Z,19.39
2023-01-20T14:22:22.383Z,19.48
2023-01-20T14:27:29.829Z,19.56
2023-01-20T14:32:36.877Z,19.57
2023-01-20T14:37:44.087Z,19.55
2023-01-20T14:42:51.343Z,19.53
2023-01-20T14:47:58.522Z,19.52
2023-01-20T14:53:05.718Z,19.43
2023-01-20T14:58:12.944Z,19.38
2023-01-20T15:03:20.144Z,19.36
2023-01-20T15:08:27.306Z,19.25
2023-01-20T15:13:37.550Z,19.20
2023-01-20T15:18:41.724Z,19.20
2023-01-20T15:23:48.886Z,19.23
2023-01-20T15:28:56.162Z,19.33
2023-01-20T15:34:03.352Z,19.45
2023-01-20T15:39:10.581Z,19.52
2023-01-20T15:44:17.744Z,19.54
2023-01-20T15:49:24.960Z,19.53
2023-01-20T15:54:32.183Z,19.53
2023-01-20T15:59:39.441Z,19.45
2023-01-20T16:04:46.581Z,19.42
2023-01-20T16:09:53.770Z,19.37
2023-01-20T16:15:00.971Z,19.30
2023-01-20T16:20:08.176Z,19.22
2023-01-20T16:25:15.438Z,19.08
2023-01-20T16:30:22.747Z,19.10
2023-01-20T16:35:30.206Z,19.17
2023-01-20T16:40:37.515Z,19.31
2023-01-20T16:45:44.808Z,19.47
2023-01-20T16:50:51.948Z,19.69
2023-01-20T16:55:59.146Z,19.98
2023-01-20T17:01:06.434Z,20.21
2023-01-20T17:06:14.983Z,20.45
2023-01-20T17:11:20.937Z,20.69
2023-01-20T17:16:28.649Z,20.86
2023-01-20T17:21:36.328Z,20.98
2023-01-20T17:26:43.596Z,21.09
2023-01-20T17:31:50.903Z,21.19
2023-01-20T17:36:58.025Z,21.30
2023-01-20T17:42:05.244Z,21.38
2023-01-20T17:47:12.595Z,21.49
2023-01-20T17:52:19.754Z,21.55
2023-01-20T17:57:27.248Z,21.63
2023-01-20T18:02:34.299Z,21.72
2023-01-20T18:07:41.427Z,21.81
2023-01-20T18:12:48.839Z,21.85
2023-01-20T18:17:56.290Z,21.95
2023-01-20T18:23:03.859Z,22.18
2023-01-20T18:28:12.279Z,22.33
2023-01-20T18:33:19.855Z,22.47
2023-01-20T18:38:27.189Z,22.52
2023-01-20T18:43:34.672Z,22.58
2023-01-20T18:48:42.182Z,22.80
2023-01-20T18:53:49.521Z,22.84
2023-01-20T18:58:57.056Z,22.95
2023-01-20T19:04:04.816Z,23.08
2023-01-20T19:09:12.487Z,23.21
2023-01-20T19:14:20.135Z,23.38
2023-01-20T19:19:27.744Z,23.53
2023-01-20T19:24:35.041Z,23.67
2023-01-20T19:29:42.538Z,23.75
2023-01-20T19:34:50.179Z,23.76
2023-01-20T19:39:57.869Z,23.80
2023-01-20T19:45:05.996Z,23.92
2023-01-20T19:50:13.478Z,24.05
2023-01-20T19:55:20.781Z,24.16
2023-01-20T20:00:28.346Z,24.29
2023-01-20T20:05:36.001Z,24.30
2023-01-20T20:10:43.556Z,24.35
2023-01-20T20:15:51.198Z,24.45
2023-01-20T20:20:58.924Z,24.56
2023-01-20T20:26:06.610Z,24.65
2023-01-20T20:31:14.311Z,24.68
2023-01-20T20:36:21.856Z,24.71
2023-01-20T20:41:29.649Z,24.76
2023-01-20T20:46:37.213Z,24.70
2023-01-20T20:51:44.804Z,24.65
2023-01-20T20:56:52.389Z,24.69
2023-01-20T21:02:00.047Z,24.79
2023-01-20T21:07:07.643Z,24.90
2023-01-20T21:12:15.131Z,24.91
2023-01-20T21:17:22.748Z,25.02
2023-01-20T21:22:30.407Z,25.02
2023-01-20T21:27:37.719Z,25.07
2023-01-20T21:32:45.083Z,25.08
2023-01-20T21:37:52.715Z,25.13
2023-01-20T21:43:00.307Z,25.24
2023-01-20T21:48:07.683Z,25.31
2023-01-20T21:53:14.961Z,25.33
2023-01-20T21:58:22.151Z,25.37
2023-01-20T22:03:29.379Z,25.40
2023-01-20T22:08:36.570Z,25.43
2023-01-20T22:13:43.772Z,25.43
2023-01-20T22:18:50.962Z,25.52
2023-01-20T22:23:58.474Z,25.53
2023-01-20T22:29:05.720Z,25.53
2023-01-20T22:34:12.905Z,25.56
2023-01-20T22:39:20.126Z,25.61
2023-01-20T22:44:27.264Z,25.61
2023-01-20T22:49:34.474Z,25.63
2023-01-20T22:54:41.694Z,25.69
2023-01-20T22:59:48.894Z,25.75
2023-01-20T23:04:56.111Z,25.68
2023-01-20T23:10:03.360Z,25.72
2023-01-20T23:15:10.637Z,25.74
2023-01-20T23:20:18.322Z,25.65
2023-01-20T23:25:25.108Z,25.64
2023-01-20T23:30:32.373Z,25.62
2023-01-20T23:35:39.613Z,25.58
2023-01-20T23:40:46.779Z,25.34
2023-01-20T23:45:53.952Z,25.17
2023-01-20T23:51:01.159Z,25.17
2023-01-20T23:56:08.347Z,25.20
